Weather History for Cook, MN

Change the Weather History Date:

Friday, November 30, 2012

  Actual Average Record
Temperature  
Mean Temperature 21 °F -  
Max Temperature 28 °F 28 °F 39 °F (1999)
Min Temperature 14 °F 12 °F -11 °F (2007)
Degree Days  
Heating Degree Days 44    
Moisture  
Dew Point 20 °F    
Average Humidity 86    
Maximum Humidity 93    
Minimum Humidity 79    
Precipitation  
Precipitation 0.00 in - - ()
Sea Level Pressure  
Sea Level Pressure 30.14 in    
Wind  
Wind Speed 5 mph (ESE)    
Max Wind Speed 12 mph    
Max Gust Speed 17 mph    
Visibility 10 miles    
Events Snow    
Averages and records for this station are not official NWS values.
T = Trace of Precipitation, MM = Missing Value Source: NWS Daily Summary

Daily Weather History Graph

Daily Weather History Graph

Search for Another Location

Airport:

Trip Planner

Search our weather history database for the weather conditions in past years. The results will help you decide how hot, cold, wet, or windy it might be!

Date:

Astronomy

Nov. 30, 2012 Rise Set
Actual Time 7:38 AM CST 4:20 PM CST
Civil Twilight 7:02 AM CST 4:56 PM CST
Nautical Twilight 6:24 AM CST 5:34 PM CST
Astronomical Twilight 5:46 AM CST 6:12 PM CST
Moon 6:17 PM CST (11/30) 9:10 AM CST (11/30)
Length of Visible Light 9h 53m
Length of Day
8h 42m
Waning Gibbous, 96% of the Moon is Illuminated
Nov 30
Waning Gibbous
Dec 6
Last Quarter
Dec 13
New
Dec 19
First Quarter
Dec 28
Full

Hourly Weather History & Observations

Time (CST) Temp. Windchill Dew Point Humidity Pressure Visibility Wind Dir Wind Speed Gust Speed Precip Events Conditions
12:16 AM 14.0 °F 6.5 °F 10.4 °F 86% 30.25 in 5.0 mi ENE 4.6 mph - N/A Snow Light Snow
12:37 AM 14.0 °F 3.9 °F 10.4 °F 86% 30.24 in 4.0 mi ENE 6.9 mph - N/A Snow Light Snow
12:56 AM 14.0 °F 5.1 °F 10.4 °F 86% 30.23 in 7.0 mi ENE 5.8 mph - N/A Snow Light Snow
1:17 AM 15.8 °F 8.6 °F 10.4 °F 79% 30.23 in 10.0 mi NE 4.6 mph - N/A   Overcast
1:37 AM 15.8 °F 10.2 °F 12.2 °F 86% 30.23 in 10.0 mi NE 3.5 mph - N/A   Overcast
1:56 AM 15.8 °F 10.2 °F 12.2 °F 86% 30.23 in 10.0 mi ENE 3.5 mph - N/A   Overcast
2:17 AM 15.8 °F 8.6 °F 12.2 °F 86% 30.23 in 10.0 mi ENE 4.6 mph - N/A   Overcast
2:37 AM 17.6 °F 9.3 °F 12.2 °F 79% 30.22 in 10.0 mi East 5.8 mph - N/A   Overcast
2:56 AM 17.6 °F 10.7 °F 12.2 °F 79% 30.22 in 10.0 mi ENE 4.6 mph - N/A   Overcast
3:17 AM 17.6 °F 9.3 °F 12.2 °F 79% 30.21 in 10.0 mi East 5.8 mph - N/A   Overcast
3:37 AM 17.6 °F 9.3 °F 12.2 °F 79% 30.21 in 10.0 mi East 5.8 mph - N/A   Overcast
3:56 AM 17.6 °F 9.3 °F 12.2 °F 79% 30.19 in 10.0 mi East 5.8 mph - N/A   Overcast
4:17 AM 17.6 °F 10.7 °F 12.2 °F 79% 30.19 in 10.0 mi East 4.6 mph - N/A   Overcast
4:37 AM 17.6 °F 10.7 °F 14.0 °F 86% 30.19 in 10.0 mi East 4.6 mph - N/A   Overcast
4:56 AM 17.6 °F 10.7 °F 14.0 °F 86% 30.20 in 10.0 mi ENE 4.6 mph - N/A   Overcast
5:17 AM 17.6 °F 10.7 °F 14.0 °F 86% 30.19 in 10.0 mi East 4.6 mph - N/A   Overcast
5:37 AM 17.6 °F 12.3 °F 14.0 °F 86% 30.19 in 10.0 mi East 3.5 mph - N/A   Overcast
5:56 AM 17.6 °F 10.7 °F 15.8 °F 93% 30.19 in 10.0 mi East 4.6 mph - N/A   Overcast
6:17 AM 17.6 °F 12.3 °F 15.8 °F 93% 30.19 in 10.0 mi ENE 3.5 mph - N/A   Overcast
6:37 AM 17.6 °F - 15.8 °F 93% 30.19 in 10.0 mi Calm Calm - N/A   Overcast
6:56 AM 19.4 °F - 15.8 °F 86% 30.20 in 10.0 mi Calm Calm - N/A   Overcast
7:17 AM 19.4 °F - 15.8 °F 86% 30.19 in 10.0 mi Calm Calm - N/A   Overcast
7:36 AM 19.4 °F - 15.8 °F 86% 30.21 in 10.0 mi Calm Calm - N/A   Overcast
7:57 AM 19.4 °F 14.3 °F 15.8 °F 86% 30.21 in 10.0 mi NE 3.5 mph - N/A   Overcast
8:17 AM 19.4 °F - 17.6 °F 93% 30.21 in 10.0 mi Calm Calm - N/A   Overcast
8:34 AM 19.4 °F 14.3 °F 17.6 °F 93% 30.19 in 10.0 mi East 3.5 mph - N/A   Overcast
8:57 AM 21.2 °F 13.6 °F 17.6 °F 86% 30.19 in 10.0 mi East 5.8 mph - N/A   Overcast
9:17 AM 21.2 °F - 17.6 °F 86% 30.20 in 10.0 mi Calm Calm - N/A   Overcast
9:36 AM 21.2 °F 16.4 °F 19.4 °F 93% 30.20 in 10.0 mi East 3.5 mph - N/A   Overcast
9:57 AM 23.0 °F 18.4 °F 19.4 °F 86% 30.20 in 10.0 mi East 3.5 mph - N/A   Overcast
10:17 AM 24.8 °F 19.1 °F 19.4 °F 80% 30.20 in 10.0 mi East 4.6 mph - N/A   Overcast
10:36 AM 24.8 °F 17.9 °F 21.2 °F 86% 30.18 in 10.0 mi ESE 5.8 mph - N/A   Overcast
10:57 AM 26.6 °F 18.2 °F 23.0 °F 86% 30.18 in 10.0 mi ESE 8.1 mph - N/A   Overcast
11:17 AM 26.6 °F 19.1 °F 23.0 °F 86% 30.17 in 10.0 mi SE 6.9 mph - N/A   Overcast
11:36 AM 26.6 °F 19.1 °F 23.0 °F 86% 30.18 in 10.0 mi SE 6.9 mph 16.1 mph N/A   Overcast
11:57 AM 28.4 °F 21.2 °F 24.8 °F 86% 30.17 in 10.0 mi SE 6.9 mph - N/A   Overcast
12:16 PM 28.4 °F 20.4 °F 23.0 °F 80% 30.16 in 10.0 mi SE 8.1 mph - N/A   Overcast
12:37 PM 28.4 °F 19.7 °F 23.0 °F 80% 30.15 in 10.0 mi SE 9.2 mph - N/A   Overcast
12:57 PM 28.4 °F 21.2 °F 24.8 °F 86% 30.16 in 10.0 mi SSE 6.9 mph - N/A   Overcast
1:16 PM 28.4 °F 21.2 °F 24.8 °F 86% 30.14 in 10.0 mi SE 6.9 mph - N/A   Overcast
1:37 PM 28.4 °F 19.7 °F 24.8 °F 86% 30.13 in 10.0 mi SE 9.2 mph 16.1 mph N/A   Overcast
1:57 PM 28.4 °F 20.4 °F 24.8 °F 86% 30.13 in 10.0 mi SE 8.1 mph - N/A   Overcast
2:16 PM 28.4 °F 20.4 °F 24.8 °F 86% 30.12 in 10.0 mi SSE 8.1 mph 16.1 mph N/A   Overcast
2:37 PM 28.4 °F 22.2 °F 24.8 °F 86% 30.12 in 7.0 mi SE 5.8 mph - N/A   Overcast
2:57 PM 28.4 °F 23.3 °F 24.8 °F 86% 30.12 in 10.0 mi SE 4.6 mph 9.2 mph N/A   Overcast
3:17 PM 28.4 °F 22.2 °F 24.8 °F 86% 30.13 in 10.0 mi SE 5.8 mph - N/A   Overcast
3:37 PM 28.4 °F 23.3 °F 24.8 °F 86% 30.12 in 10.0 mi SE 4.6 mph - N/A   Overcast
3:56 PM 28.4 °F 22.2 °F 24.8 °F 86% 30.13 in 10.0 mi SE 5.8 mph - N/A   Overcast
4:17 PM 28.4 °F 21.2 °F 24.8 °F 86% 30.13 in 10.0 mi SE 6.9 mph - N/A   Overcast
4:37 PM 28.4 °F 23.3 °F 24.8 °F 86% 30.12 in 10.0 mi SE 4.6 mph - N/A   Overcast
4:57 PM 28.4 °F 22.2 °F 24.8 °F 86% 30.11 in 10.0 mi SE 5.8 mph - N/A   Overcast
5:17 PM 28.4 °F 21.2 °F 24.8 °F 86% 30.10 in 10.0 mi SE 6.9 mph - N/A   Overcast
5:36 PM 28.4 °F 20.4 °F 24.8 °F 86% 30.08 in 10.0 mi SE 8.1 mph - N/A   Overcast
5:57 PM 28.4 °F 18.5 °F 24.8 °F 86% 30.07 in 10.0 mi SE 11.5 mph - N/A   Overcast
6:17 PM 28.4 °F 19.7 °F 24.8 °F 86% 30.08 in 10.0 mi SE 9.2 mph - N/A   Overcast
6:36 PM 28.4 °F 19.7 °F 24.8 °F 86% 30.07 in 10.0 mi SE 9.2 mph - N/A   Overcast
6:57 PM 28.4 °F 22.2 °F 24.8 °F 86% 30.06 in 10.0 mi SE 5.8 mph - N/A   Overcast
7:17 PM 28.4 °F 22.2 °F 24.8 °F 86% 30.07 in 10.0 mi SE 5.8 mph - N/A   Overcast
7:36 PM 28.4 °F 21.2 °F 24.8 °F 86% 30.07 in 10.0 mi SSE 6.9 mph - N/A   Overcast
7:57 PM 28.4 °F 21.2 °F 24.8 °F 86% 30.06 in 10.0 mi SE 6.9 mph - N/A   Overcast
8:16 PM 28.4 °F 20.4 °F 24.8 °F 86% 30.06 in 10.0 mi SE 8.1 mph - N/A   Overcast
8:37 PM 28.4 °F 18.5 °F 24.8 °F 86% 30.05 in 10.0 mi SSE 11.5 mph - N/A   Overcast
8:57 PM 28.4 °F 22.2 °F 24.8 °F 86% 30.05 in 10.0 mi SE 5.8 mph - N/A   Overcast
9:17 PM 28.4 °F 22.2 °F 26.6 °F 93% 30.05 in 10.0 mi SE 5.8 mph - N/A   Overcast
9:37 PM 28.4 °F 21.2 °F 26.6 °F 93% 30.04 in 7.0 mi SE 6.9 mph - N/A   Overcast
9:57 PM 28.4 °F 19.1 °F 26.6 °F 93% 30.03 in 7.0 mi SE 10.4 mph 17.3 mph N/A   Overcast
10:17 PM 28.4 °F 19.1 °F 26.6 °F 93% 30.02 in 7.0 mi SE 10.4 mph - N/A   Overcast
10:36 PM 28.4 °F 19.1 °F 26.6 °F 93% 30.01 in 7.0 mi SE 10.4 mph 17.3 mph N/A   Overcast
11:17 PM 28.4 °F 19.7 °F 26.6 °F 93% 30.01 in 7.0 mi SSE 9.2 mph - N/A   Overcast
11:36 PM 28.4 °F 18.5 °F 26.6 °F 93% 30.00 in 7.0 mi SE 11.5 mph 16.1 mph N/A   Overcast
11:57 PM 28.4 °F 19.1 °F 26.6 °F 93% 29.99 in 7.0 mi SE 10.4 mph - N/A   Overcast